Aviation Digital Data Service (ADDS)

Output produced by METARs form (1845 UTC 18 June 2019)
found at http://www.aviationweather.gov/metar/data/
 
ENAT 181750Z 28009KT 240V300 CAVOK 12/05 Q1007 RMK WIND 700FT 30011KT
TAF ENAT 181700Z 1818/1822 32009KT 9999 SCT050
       
ENAN 181820Z VRB03KT 9999 -DZ BKN022 10/07 Q1009
TAF ENAN 1818/1918 06008KT 9999 -SHRA FEW015TCU BKN030 
     TEMPO 1818/1914 SHRA BKN015CB 
     BECMG 1910/1912 29012KT
       
ENML 181820Z 25005KT 210V290 9999 SHRA FEW015 SCT030 BKN050 13/11 Q1009
TAF ENML 181700Z 1818/1821 VRB07KT 9999 -SHRA FEW025TCU BKN060 
     TEMPO 1818/1821 31012KT SHRA SCT020CB
       
ENNA 181820Z 36010KT CAVOK 08/03 Q1008 RMK WIND 1800FT 07010KT
TAF ENNA 1818/1918 35009KT 9999 FEW015 BKN030 
     TEMPO 1822/1918 RA BKN012
       
ENDU 181750Z VRB02KT 9999 -SHRA FEW014 BKN040 10/09 Q1008 RMK WIND 1100FT 29009KT WIND 2200FT 29013KT
TAF ENDU 1818/1918 29008KT 9999 FEW020 BKN040 
     PROB30 
     TEMPO 1818/1821 SHRA BKN014 
     PROB30 
     TEMPO 1908/1915 SHRA BKN014
       
ENBS 181550Z 03010KT 9999 FEW030 05/M00 Q1009
ENBR 181820Z 19012KT 9999 SCT012 FEW030TCU BKN065 13/10 Q1010 NOSIG RMK WIND 1200FT 20018KT
TAF ENBR 1818/1918 19012KT 9999 FEW012 BKN080 
     PROB30 
     TEMPO 1818/1904 4000 SHRA BR BKN009 FEW015CB 
     BECMG 1903/1906 VRB06KT
       
ENBO 181820Z VRB03KT 9999 FEW035 SCT055 BKN080 12/07 Q1008 NOSIG
TAF ENBO 1818/1918 09008KT 9999 FEW020 BKN050 
     TEMPO 1821/1918 SHRA BKN014CB
       
ENBL 181820Z 21008KT 9999 SCT025 BKN035 12/09 Q1009
ENBN 181820Z 15003KT 9999 VCSH FEW040 SCT056 14/10 Q1009
TAF ENBN 181400Z 1815/1819 20005KT 9999 FEW020 SCT040 
     PROB40 
     TEMPO 1815/1819 SHRA BKN014 FEW020CB 
     PROB30 1815/1818 TS
       
ENEV 181750Z 15004KT 110V200 9999 -RA FEW011 BKN040 10/09 Q1009 RMK WIND 1400FT 23008KT
TAF ENEV 181700Z 1818/1821 24008KT 9999 -SHRA FEW015 BKN025
       
ENFL 181820Z 20015KT 9999 FEW010 SCT030TCU BKN065 13/10 Q1008
TAF ENFL 181700Z 1818/1822 20015KT 9999 -SHRA FEW020TCU SCT030 BKN070 
     TEMPO 1818/1822 SHRA BKN010 SCT020CB
       
ENHK 181750Z 33007KT 9999 FEW040 BKN070 09/04 Q1008
ENHD 181820Z 19011KT CAVOK 14/10 Q1011
TAF ENHD 181700Z 1818/1821 19012KT 9999 FEW006 SCT080 
     PROB30 1819/1821 BKN006
       
ENKR 181820Z 07009KT CAVOK 07/02 Q1008 RMK WIND 731FT 06010KT
TAF ENKR 181700Z 1818/1903 06008KT 9999 FEW040
       
ENMS 181820Z 31004KT 9999 VCSH FEW030 BKN050 16/07 Q1007 RMK WIND 412FT 33003KT 250V020
ENCN 181820Z 19009KT 9999 FEW032 17/15 Q1012
TAF ENCN 181700Z 1818/1821 19007KT 9999 FEW030
       
ENKB 181820Z 25006KT 230V290 9999 SCT016 BKN027 13/09 Q1008 RMK WIND 745FT 29007KT
TAF ENKB 181700Z 1818/1821 VRB06KT 9999 -SHRA SCT025TCU BKN050 
     TEMPO 1818/1821 SHRA SCT020CB
       
ENNO 181650Z 33006KT 300V060 9999 FEW035 SCT070 BKN090 19/12 Q1010
TAF ENNO 181100Z 1812/1817 14008KT 9999 FEW040 BKN050
       
ENOL 181820Z 30006KT 9999 FEW014 FEW018CB BKN070 13/09 Q1008 TEMPO SHRA SCT018CB BKN030
TAF ENOL 1818/1918 VRB07KT 9999 FEW015 SCT050 
     TEMPO 1818/1902 SHRA SCT018CB BKN030 
     PROB30 
     TEMPO 1818/1824 TS 
     BECMG 1900/1903 12010KT 
     TEMPO 1909/1915 SHRA SCT014CB BKN030 
     BECMG 1912/1915 34010KT
       
ENGM 181820Z 19014KT 9999 FEW045 BKN170 17/10 Q1010 NOSIG
TAF ENGM 1818/1918 19012KT 9999 FEW030 
     TEMPO 1818/1822 BKN025 FEW030CB 
     BECMG 1823/1901 VRB05KT 
     PROB40 1900/1906 2000 BR OVC002 
     BECMG 1907/1909 19010KT 
     BECMG 1914/1916 35008KT
       
ENRO 181820Z AUTO 18009KT 160V250 9999NDV NCD 16/05 Q1007
TAF ENRO 181100Z 1812/1818 20008KT 9999 BKN040 
     TEMPO 1812/1817 24015G25KT 
     TEMPO 1814/1818 SHRA SCT020 SCT030CB 
     PROB30 
     TEMPO 1816/1818 TS
       
ENRY 181820Z AUTO 19011KT 160V220 9999NDV FEW150/// 16/12 Q1012
TAF ENRY 1818/1918 19010KT 9999 FEW020 
     BECMG 1822/1824 VRB03KT 
     PROB40 1901/1906 3000 BR BKN004 
     BECMG 1907/1909 21010KT 
     BECMG 1914/1916 03010KT 
     TEMPO 1916/1918 4000 TSRA SCT030CB BKN040
       
ENSO 181650Z 21010KT 160V260 9999 FEW028TCU FEW076 SCT090 16/09 Q1011
TAF ENSO 181400Z 1815/1818 20012KT 9999 FEW025 SCT080
       
ENSG 181820Z VRB03KT 9999 VCSH FEW025 SCT055 10/07 Q1010 RMK WIND 3806FT 22025KT
ENSR 181650Z 33005KT 9999 -DZ SCT044 BKN065 10/06 Q1008 WIND 1119FT VRB01KT
ENZV 181820Z 20009KT 9999 FEW020 16/10 Q1012 NOSIG
TAF ENZV 1818/1918 21012KT 9999 FEW020 BKN080 
     BECMG 1819/1822 VRB06KT 
     PROB40 1822/1904 4000 BR BKN006 
     PROB30 
     TEMPO 1913/1918 RA
       
ENST 181820Z 1807KT 9999 -SHRA FEW035 BKN060 13/09 Q1008 RMK WIND 300FT 20009KT
ENSS 181750Z 08006KT 9999 BKN030 05/01 Q1010 RMK WIND 500FT 06013KT
ENTO 181820Z 19017KT CAVOK 17/11 Q1011 NOSIG
TAF ENTO 1818/1918 20010KT 9999 FEW020 
     BECMG 1822/1824 26005KT 
     BECMG 1907/1909 17010KT 
     BECMG 1914/1916 03010KT 
     TEMPO 1916/1918 4000 TSRA SCT030CB BKN040
       
ENTC 181820Z 07004KT 030V100 9999 VCSH FEW029 BKN049 09/05 Q1008 NOSIG RMK WIND 2600FT 30007KT
TAF ENTC 1818/1918 03008KT 9999 FEW015 BKN035 
     TEMPO 1818/1918 -RADZ BKN012
       
ENVA 181820Z 33012KT 9999 -RA FEW045CB SCT055 BKN066 14/11 Q1008 TEMPO TSRA RMK WIND 670FT 33014KT
TAF ENVA 1818/1918 VRB07KT 9999 -SHRA FEW020TCU SCT040 
     TEMPO 1818/1823 29015G25KT SHRA BKN018CB 
     PROB40 
     TEMPO 1818/1822 4000 TSRA
       
ENAL 181820Z 15007KT 9999 VCSH SCT037 BKN055 12/11 Q1008
TAF ENAL 181700Z 1818/1821 VRB06KT 9999 -SHRA FEW025 BKN060 
     TEMPO 1818/1821 SHRA SCT020CB